Time;durP1;ratioP1;P1;durP2;ratioP2;P2;SDS_P1;SDS_P2;PMS_P1;PMS_P2;Temp;Humidity;BMP_temperature;BMP_pressure;BME280_temperature;BME280_humidity;BME280_pressure;Samples;Min_cycle;Max_cycle;Signal;HPM_P1;HPM_P2
2022/07/15 00:00:04;;;;;;;1.55;1.20;;;;;;;15.52;59.97;96518.88;5115134;28;20105;-63
2022/07/15 00:02:31;;;;;;;3.72;1.40;;;;;;;15.44;59.26;96515.81;5114911;28;20051;-63
2022/07/15 00:04:58;;;;;;;1.80;1.00;;;;;;;15.48;59.51;96513.88;5115055;28;20130;-62
2022/07/15 00:07:25;;;;;;;1.80;1.10;;;;;;;15.49;59.16;96513.78;5114940;28;20130;-62
2022/07/15 00:12:37;;;;;;;3.08;1.58;;;;;;;15.49;59.36;96513.78;5114889;28;20047;-62
2022/07/15 00:15:07;;;;;;;5.18;1.45;;;;;;;15.49;59.49;96505.00;5114585;28;20433;-62
2022/07/15 00:17:35;;;;;;;2.33;1.57;;;;;;;15.47;59.79;96502.47;5114731;28;20129;-63
2022/07/15 00:20:02;;;;;;;2.03;1.40;;;;;;;15.47;59.94;96506.91;5114650;28;20100;-64
2022/07/15 00:22:29;;;;;;;1.00;1.00;;;;;;;15.43;59.85;96505.34;5114547;28;20052;-64
2022/07/15 00:24:57;;;;;;;1.63;1.17;;;;;;;15.44;59.85;96501.81;5114447;28;20138;-62
2022/07/15 00:27:24;;;;;;;2.08;1.30;;;;;;;15.45;59.90;96500.84;5114598;28;20044;-64
2022/07/15 00:29:51;;;;;;;1.20;1.10;;;;;;;15.43;59.92;96502.72;5114327;28;20079;-63
2022/07/15 00:32:20;;;;;;;1.60;1.45;;;;;;;15.34;59.72;96504.97;5114451;28;20075;-63
2022/07/15 00:34:47;;;;;;;3.75;1.40;;;;;;;15.34;59.92;96498.84;5114392;28;20140;-64
2022/07/15 00:37:14;;;;;;;1.17;1.08;;;;;;;15.35;60.01;96492.66;5114287;27;20481;-63
2022/07/15 00:39:42;;;;;;;1.83;1.20;;;;;;;15.38;60.03;96495.94;5113884;28;20059;-63
2022/07/15 00:42:09;;;;;;;2.08;1.42;;;;;;;15.31;59.93;96505.16;5114214;28;20459;-63
2022/07/15 00:44:36;;;;;;;2.05;1.08;;;;;;;15.32;59.65;96498.09;5114006;28;20051;-64
2022/07/15 00:47:03;;;;;;;1.30;1.17;;;;;;;15.32;59.81;96498.94;5113914;28;20104;-64
2022/07/15 00:49:32;;;;;;;1.85;1.30;;;;;;;15.24;60.07;96493.25;5114139;28;20097;-64
2022/07/15 00:52:02;;;;;;;1.45;1.30;;;;;;;15.16;60.08;96497.19;5114163;28;20047;-64
2022/07/15 00:54:30;;;;;;;2.20;1.10;;;;;;;15.08;60.19;96494.13;5113911;28;20521;-63
2022/07/15 00:56:58;;;;;;;1.95;1.27;;;;;;;15.06;60.72;96492.53;5113921;28;20509;-63
2022/07/15 00:59:32;;;;;;;1.40;1.30;;;;;;;15.07;60.46;96491.59;5113896;28;20134;-62
2022/07/15 01:01:59;;;;;;;1.40;1.30;;;;;;;15.08;60.62;96486.22;5113963;28;20144;-63
2022/07/15 01:04:28;;;;;;;1.30;1.20;;;;;;;15.08;60.80;96477.50;5113949;28;20047;-64
2022/07/15 01:06:57;;;;;;;3.33;1.23;;;;;;;15.07;60.69;96479.28;5113771;28;20044;-63
2022/07/15 01:09:24;;;;;;;1.73;1.15;;;;;;;15.06;60.71;96477.59;5113807;28;20122;-63
2022/07/15 01:11:51;;;;;;;1.38;1.27;;;;;;;15.06;60.88;96480.22;5113684;28;20493;-64
2022/07/15 01:14:19;;;;;;;1.52;1.30;;;;;;;15.05;61.23;96472.41;5113526;28;20139;-63
2022/07/15 01:16:46;;;;;;;1.33;1.15;;;;;;;15.01;61.07;96467.31;5113689;28;20464;-64
2022/07/15 01:19:13;;;;;;;1.52;1.25;;;;;;;14.99;61.04;96471.81;5113565;28;20051;-63
2022/07/15 01:21:42;;;;;;;2.22;1.48;;;;;;;15.00;60.98;96463.00;5113508;28;20136;-63
2022/07/15 01:24:09;;;;;;;1.83;1.25;;;;;;;14.94;61.37;96460.69;5113659;28;20114;-62
2022/07/15 01:26:36;;;;;;;1.30;1.20;;;;;;;14.89;61.44;96460.97;5113491;28;20135;-63
2022/07/15 01:29:03;;;;;;;2.35;1.45;;;;;;;14.83;61.17;96447.28;5113470;28;20143;-64
2022/07/15 01:31:30;;;;;;;2.75;1.33;;;;;;;14.87;61.50;96456.72;5113541;28;20079;-63
2022/07/15 01:33:58;;;;;;;1.77;1.35;;;;;;;14.88;61.68;96455.78;5113578;28;20048;-62
2022/07/15 01:36:25;;;;;;;1.38;1.27;;;;;;;14.80;61.76;96457.97;5113460;28;20576;-62
2022/07/15 01:38:53;;;;;;;1.33;1.23;;;;;;;14.80;61.75;96447.44;5113483;28;20043;-63
2022/07/15 01:41:22;;;;;;;2.13;1.35;;;;;;;14.77;62.12;96449.31;5113464;28;20051;-64
2022/07/15 01:43:49;;;;;;;2.65;1.40;;;;;;;14.75;62.09;96452.97;5113379;28;20044;-63
2022/07/15 01:46:16;;;;;;;3.40;1.30;;;;;;;14.71;62.18;96449.66;5113526;28;20047;-64
2022/07/15 01:51:27;;;;;;;3.03;1.20;;;;;;;14.65;62.14;96453.47;5113408;28;20069;-62
2022/07/15 01:53:56;;;;;;;1.77;1.45;;;;;;;14.63;62.28;96452.69;5117391;28;20417;-63
2022/07/15 01:56:24;;;;;;;2.20;1.50;;;;;;;14.62;62.17;96439.63;5117491;28;20050;-64
2022/07/15 01:58:51;;;;;;;1.50;1.40;;;;;;;14.60;62.16;96439.72;5117305;28;20047;-63
2022/07/15 02:01:19;;;;;;;1.23;1.10;;;;;;;14.62;62.37;96442.25;5117388;28;20469;-63
2022/07/15 02:03:46;;;;;;;3.72;1.40;;;;;;;14.64;62.37;96441.25;5117400;28;20044;-64
2022/07/15 02:06:13;;;;;;;3.38;1.50;;;;;;;14.61;62.64;96448.47;5117297;28;20122;-63
2022/07/15 02:08:40;;;;;;;1.27;1.10;;;;;;;14.54;62.68;96445.31;5117227;27;20097;-64
2022/07/15 02:11:09;;;;;;;1.90;1.17;;;;;;;14.50;63.01;96439.38;5117327;28;20471;-63
2022/07/15 02:13:36;;;;;;;1.40;1.30;;;;;;;14.48;62.85;96445.69;5117201;28;20044;-63
2022/07/15 02:16:04;;;;;;;2.60;1.33;;;;;;;14.45;62.82;96448.47;5116984;28;20047;-63
2022/07/15 02:18:31;;;;;;;1.73;1.40;;;;;;;14.44;63.05;96444.13;5116937;28;20078;-63
2022/07/15 02:20:58;;;;;;;1.98;1.70;;;;;;;14.38;62.99;96453.22;5117013;28;20048;-63
2022/07/15 02:23:25;;;;;;;3.03;1.60;;;;;;;14.25;63.26;96453.91;5116868;28;20524;-63
2022/07/15 02:25:52;;;;;;;3.97;1.70;;;;;;;14.19;63.56;96448.97;5117023;28;20066;-64
2022/07/15 02:28:21;;;;;;;1.90;1.50;;;;;;;14.24;63.53;96454.81;5117097;28;20071;-62
2022/07/15 02:30:48;;;;;;;1.65;1.55;;;;;;;14.24;63.69;96451.34;5116930;28;20443;-63
2022/07/15 02:33:16;;;;;;;1.55;1.42;;;;;;;14.18;63.73;96454.31;5116799;28;20051;-64
2022/07/15 02:35:44;;;;;;;1.50;1.40;;;;;;;14.14;63.90;96457.09;5116686;27;20615;-62
2022/07/15 02:38:12;;;;;;;1.42;1.30;;;;;;;14.14;63.99;96453.59;5116661;28;20084;-61
2022/07/15 02:40:40;;;;;;;1.50;1.40;;;;;;;14.13;64.07;96458.03;5116564;28;20179;-62
2022/07/15 02:43:08;;;;;;;3.97;1.23;;;;;;;14.09;64.03;96456.47;5116489;28;20047;-63
2022/07/15 02:45:37;;;;;;;2.15;1.50;;;;;;;14.09;64.18;96455.66;5116447;28;20046;-61
2022/07/15 02:48:05;;;;;;;3.00;1.70;;;;;;;14.10;64.00;96455.56;5116274;28;20087;-64
2022/07/15 02:50:33;;;;;;;1.85;1.45;;;;;;;14.10;64.12;96459.97;5116426;28;20048;-62
2022/07/15 02:53:00;;;;;;;2.70;1.40;;;;;;;14.10;64.17;96454.72;5116399;28;20451;-62
2022/07/15 02:55:28;;;;;;;1.70;1.40;;;;;;;14.07;64.29;96454.88;5116330;28;20189;-64
2022/07/15 02:57:55;;;;;;;2.25;1.70;;;;;;;13.98;64.17;96458.84;5116289;28;20044;-62
2022/07/15 03:00:23;;;;;;;1.58;1.48;;;;;;;13.93;64.54;96459.09;5116221;28;20048;-62
2022/07/15 03:02:51;;;;;;;2.28;1.95;;;;;;;13.95;64.78;96457.25;5115780;28;20059;-62
2022/07/15 03:05:19;;;;;;;1.80;1.33;;;;;;;13.99;64.62;96463.16;5116217;28;20098;-63
2022/07/15 03:07:47;;;;;;;1.52;1.20;;;;;;;14.02;64.76;96461.22;5116146;28;20394;-62
2022/07/15 03:10:15;;;;;;;1.50;1.40;;;;;;;13.99;64.86;96458.78;5116011;28;20039;-62
2022/07/15 03:12:42;;;;;;;11.25;1.90;;;;;;;13.96;64.61;96458.94;5115832;28;20048;-62
2022/07/15 03:15:11;;;;;;;1.70;1.33;;;;;;;13.97;65.05;96460.63;5115776;28;20086;-61
2022/07/15 03:17:39;;;;;;;2.95;1.40;;;;;;;13.98;64.71;96464.09;5115920;28;20138;-62
2022/07/15 03:20:10;;;;;;;1.83;1.30;;;;;;;14.01;64.92;96456.06;5115830;28;20047;-64
2022/07/15 03:22:37;;;;;;;1.77;1.67;;;;;;;14.09;64.92;96458.28;5115828;28;20091;-62
2022/07/15 03:25:05;;;;;;;1.40;1.30;;;;;;;14.06;65.25;96454.00;5115703;28;20485;-62
2022/07/15 03:27:33;;;;;;;1.67;1.50;;;;;;;14.05;65.40;96460.22;5115624;28;20127;-64
2022/07/15 03:30:00;;;;;;;1.45;1.30;;;;;;;14.08;65.24;96454.78;5115824;28;20381;-64
2022/07/15 03:32:28;;;;;;;3.83;1.33;;;;;;;14.10;65.41;96457.34;5115760;28;20047;-64
2022/07/15 03:34:57;;;;;;;1.52;1.40;;;;;;;14.09;65.45;96453.84;5115581;28;20079;-62
2022/07/15 03:37:26;;;;;;;1.85;1.65;;;;;;;14.13;65.33;96455.41;5115684;28;20130;-63
2022/07/15 03:39:53;;;;;;;1.95;1.58;;;;;;;14.19;65.36;96456.84;5115418;28;20044;-63
2022/07/15 03:42:20;;;;;;;2.80;1.05;;;;;;;14.26;65.55;96460.84;5115341;28;20077;-64
2022/07/15 03:44:47;;;;;;;2.20;1.40;;;;;;;14.41;65.38;96460.94;5115254;28;20489;-63
2022/07/15 03:47:15;;;;;;;5.22;1.70;;;;;;;14.71;64.93;96464.56;5115023;28;20048;-65
2022/07/15 03:49:42;;;;;;;1.38;1.27;;;;;;;15.12;63.92;96461.44;5115166;27;20079;-62
2022/07/15 03:52:09;;;;;;;2.35;1.10;;;;;;;15.59;62.48;96456.06;5115117;28;20051;-64
2022/07/15 03:54:37;;;;;;;1.77;1.35;;;;;;;16.04;61.10;96455.19;5115127;28;20071;-62
2022/07/15 03:57:05;;;;;;;1.25;1.15;;;;;;;16.51;59.74;96461.09;5115232;28;20039;-64
2022/07/15 03:59:32;;;;;;;4.90;1.23;;;;;;;17.05;58.69;96456.78;5114959;27;20552;-63
2022/07/15 04:01:59;;;;;;;3.15;1.20;;;;;;;17.55;57.25;96461.47;5115027;28;20130;-62
2022/07/15 04:04:26;;;;;;;1.13;1.00;;;;;;;18.02;55.88;96460.94;5114888;28;20405;-62
2022/07/15 04:06:54;;;;;;;6.40;1.40;;;;;;;18.53;54.66;96463.66;5114852;28;20135;-63
2022/07/15 04:09:21;;;;;;;2.33;1.10;;;;;;;19.01;53.25;96456.69;5114869;28;20079;-63
2022/07/15 04:11:49;;;;;;;3.95;1.10;;;;;;;19.47;52.56;96465.69;5114817;27;20047;-62
2022/07/15 04:14:17;;;;;;;9.60;1.25;;;;;;;19.87;51.94;96458.31;5114294;28;20044;-64
2022/07/15 04:16:45;;;;;;;7.15;1.60;;;;;;;20.28;50.90;96454.25;5114390;28;20134;-63
2022/07/15 04:19:13;;;;;;;9.75;1.80;;;;;;;20.67;49.72;96456.50;5114601;28;20043;-63
2022/07/15 04:21:40;;;;;;;1.77;1.10;;;;;;;20.98;49.26;96447.88;5114523;28;20047;-63
2022/07/15 04:24:07;;;;;;;2.40;0.93;;;;;;;21.33;48.91;96456.56;5114583;28;20054;-64
2022/07/15 04:26:35;;;;;;;4.30;1.55;;;;;;;21.69;48.55;96450.94;5114580;28;20057;-64
2022/07/15 04:29:03;;;;;;;4.32;1.25;;;;;;;22.06;47.74;96450.47;5114498;28;20130;-63
2022/07/15 04:31:31;;;;;;;4.03;0.95;;;;;;;22.51;46.61;96458.22;5114567;28;20100;-63
2022/07/15 04:33:58;;;;;;;2.28;1.33;;;;;;;22.88;46.55;96457.66;5114331;28;20051;-64
2022/07/15 04:36:26;;;;;;;3.90;1.00;;;;;;;23.18;45.80;96458.50;5114237;28;20055;-64
2022/07/15 04:38:53;;;;;;;1.15;1.05;;;;;;;23.46;45.12;96456.03;5114258;28;20116;-64
2022/07/15 04:41:20;;;;;;;6.68;1.25;;;;;;;23.81;44.00;96458.22;5114194;28;20085;-63
2022/07/15 04:43:47;;;;;;;6.55;1.15;;;;;;;24.04;43.59;96449.84;5114126;28;20054;-64
2022/07/15 04:46:16;;;;;;;3.15;1.27;;;;;;;24.42;44.81;96452.56;5114179;28;20048;-64
2022/07/15 04:51:27;;;;;;;1.58;1.08;;;;;;;25.07;41.47;96458.84;5114090;28;20420;-64
2022/07/15 04:53:54;;;;;;;3.92;1.20;;;;;;;25.29;43.04;96462.03;5114002;28;20047;-63
2022/07/15 04:56:22;;;;;;;2.88;1.10;;;;;;;25.58;41.15;96461.78;5113977;28;20055;-64
2022/07/15 04:58:49;;;;;;;2.33;1.20;;;;;;;25.90;40.20;96456.00;5113915;28;20079;-63
2022/07/15 05:01:17;;;;;;;1.13;0.95;;;;;;;26.20;39.56;96459.19;5113862;28;20048;-64
2022/07/15 05:03:44;;;;;;;3.90;1.38;;;;;;;26.57;40.96;96459.91;5113895;28;20096;-64
2022/07/15 05:06:12;;;;;;;6.57;1.15;;;;;;;26.81;39.50;96455.63;5113770;28;20050;-64
2022/07/15 05:08:39;;;;;;;3.10;1.10;;;;;;;27.04;38.58;96465.78;5114035;28;20040;-63
2022/07/15 05:11:06;;;;;;;1.85;1.00;;;;;;;27.31;38.32;96453.91;5113907;28;20050;-63
2022/07/15 05:13:33;;;;;;;1.95;1.10;;;;;;;27.61;37.30;96456.09;5113753;28;20043;-63
2022/07/15 05:16:00;;;;;;;2.58;1.35;;;;;;;27.88;36.00;96452.22;5113647;28;20054;-63
2022/07/15 05:18:29;;;;;;;2.13;1.20;;;;;;;28.08;37.41;96453.72;5113680;28;20044;-63
2022/07/15 05:20:56;;;;;;;2.22;1.08;;;;;;;28.40;39.17;96449.28;5113849;28;20512;-63
2022/07/15 05:23:23;;;;;;;3.35;1.30;;;;;;;28.59;38.78;96453.41;5113556;28;20047;-63
2022/07/15 05:25:50;;;;;;;5.45;1.10;;;;;;;28.82;38.20;96449.94;5113572;28;20058;-63
2022/07/15 05:28:18;;;;;;;5.18;1.10;;;;;;;29.06;37.00;96452.69;5113611;28;20100;-63
2022/07/15 05:30:45;;;;;;;4.07;1.10;;;;;;;29.28;35.94;96455.56;5113506;28;20512;-63
2022/07/15 05:33:13;;;;;;;3.25;1.42;;;;;;;29.41;34.94;96453.13;5113506;28;20050;-63
2022/07/15 05:35:42;;;;;;;0.95;0.90;;;;;;;29.54;33.39;96457.03;5113546;28;20135;-63
2022/07/15 05:38:09;;;;;;;4.57;1.10;;;;;;;29.71;33.50;96460.47;5113636;28;20052;-63
2022/07/15 05:40:36;;;;;;;2.78;1.00;;;;;;;29.80;34.25;96453.16;5113748;28;20463;-63
2022/07/15 05:43:03;;;;;;;3.35;1.08;;;;;;;29.92;34.73;96454.41;5113611;28;20100;-63
2022/07/15 05:45:30;;;;;;;0.98;0.90;;;;;;;30.18;35.29;96454.97;5113313;28;20055;-63
2022/07/15 05:47:58;;;;;;;4.68;1.27;;;;;;;30.54;34.68;96448.84;5113263;28;20100;-63
2022/07/15 05:50:25;;;;;;;3.63;1.00;;;;;;;30.85;35.39;96452.38;5113323;28;20540;-63
2022/07/15 05:52:54;;;;;;;2.35;1.02;;;;;;;31.09;35.16;96455.75;5113328;28;20043;-63
2022/07/15 05:55:21;;;;;;;1.38;1.27;;;;;;;31.30;33.77;96454.91;5113219;28;20050;-63
2022/07/15 05:57:48;;;;;;;3.83;1.00;;;;;;;31.59;32.53;96446.88;5113420;28;20047;-63
2022/07/15 06:00:16;;;;;;;4.70;1.23;;;;;;;31.83;31.52;96453.75;5113264;28;20534;-63
2022/07/15 06:02:44;;;;;;;2.58;0.80;;;;;;;32.07;29.25;96451.66;5113324;28;20102;-63
2022/07/15 06:05:12;;;;;;;5.55;0.88;;;;;;;32.29;28.69;96446.16;5113330;28;20043;-63
2022/07/15 06:07:39;;;;;;;4.90;1.00;;;;;;;32.43;28.81;96441.69;5113351;28;20097;-63
2022/07/15 06:10:09;;;;;;;5.45;1.25;;;;;;;32.60;27.65;96449.50;5113084;28;20451;-63
2022/07/15 06:12:37;;;;;;;6.03;1.05;;;;;;;32.72;27.49;96441.63;5113155;28;20043;-63
2022/07/15 06:15:05;;;;;;;1.13;1.02;;;;;;;32.84;27.55;96439.97;5113094;28;20052;-63
2022/07/15 06:17:33;;;;;;;0.80;0.80;;;;;;;33.06;27.15;96448.00;5113024;28;20047;-63
2022/07/15 06:20:00;;;;;;;2.78;1.13;;;;;;;33.18;27.20;96447.41;5113144;28;20413;-63
2022/07/15 06:22:28;;;;;;;6.50;1.35;;;;;;;33.43;27.13;96444.13;5113065;28;20047;-63
2022/07/15 06:24:55;;;;;;;1.10;1.00;;;;;;;33.65;25.85;96445.59;5113062;28;20047;-63
2022/07/15 06:27:24;;;;;;;2.70;1.30;;;;;;;33.73;25.45;96447.28;5113058;28;20457;-63
2022/07/15 06:29:52;;;;;;;1.45;1.00;;;;;;;33.80;25.47;96436.44;5113022;28;20043;-63
2022/07/15 06:32:19;;;;;;;2.10;0.88;;;;;;;33.75;25.54;96441.66;5112930;28;20511;-63
2022/07/15 06:34:47;;;;;;;6.10;1.20;;;;;;;33.84;25.22;96445.81;5112903;28;20401;-63
2022/07/15 06:37:14;;;;;;;3.42;1.25;;;;;;;34.01;25.09;96440.78;5113094;28;20150;-63
2022/07/15 06:39:42;;;;;;;1.52;1.10;;;;;;;34.08;23.63;96439.94;5116386;28;20538;-63
2022/07/15 06:42:10;;;;;;;3.38;1.30;;;;;;;34.03;25.96;96443.28;5116510;28;20131;-63
2022/07/15 06:44:38;;;;;;;2.75;1.13;;;;;;;34.02;25.60;96434.34;5116579;28;20040;-63
2022/07/15 06:47:06;;;;;;;6.43;1.20;;;;;;;33.80;25.04;96436.44;5116173;28;20047;-63
2022/07/15 06:49:34;;;;;;;7.25;1.02;;;;;;;33.68;25.45;96436.25;5116432;28;20052;-63
2022/07/15 06:52:01;;;;;;;1.23;1.00;;;;;;;34.00;24.66;96432.88;5116367;28;20126;-63
2022/07/15 06:54:28;;;;;;;6.43;0.90;;;;;;;34.29;24.25;96434.28;5116347;28;20088;-63
2022/07/15 06:56:56;;;;;;;5.68;1.15;;;;;;;34.57;23.92;96426.91;5116150;28;20052;-63
2022/07/15 06:59:26;;;;;;;8.25;1.35;;;;;;;34.65;24.14;96425.84;5116197;28;20051;-62
2022/07/15 07:01:55;;;;;;;5.03;1.00;;;;;;;34.85;23.01;96427.66;5116173;28;20040;-62
2022/07/15 07:04:23;;;;;;;1.70;0.90;;;;;;;35.09;21.94;96431.47;5116080;28;20043;-62
2022/07/15 07:06:50;;;;;;;2.88;0.80;;;;;;;35.44;21.91;96423.97;5116183;28;20060;-63
2022/07/15 07:09:17;;;;;;;4.47;1.00;;;;;;;35.72;21.57;96422.75;5116137;28;20051;-63
2022/07/15 07:11:44;;;;;;;3.85;1.10;;;;;;;35.61;21.98;96424.25;5116063;28;20048;-63
2022/07/15 07:14:11;;;;;;;2.90;0.95;;;;;;;35.70;20.98;96428.41;5115983;28;20051;-63
2022/07/15 07:16:39;;;;;;;3.90;1.38;;;;;;;35.92;19.51;96427.97;5115853;27;20143;-63
2022/07/15 07:19:08;;;;;;;3.75;1.08;;;;;;;36.08;20.24;96431.19;5115891;28;20055;-63
2022/07/15 07:21:35;;;;;;;5.13;1.10;;;;;;;36.35;20.05;96426.31;5115783;28;20054;-63
2022/07/15 07:24:02;;;;;;;4.78;1.00;;;;;;;36.57;19.35;96422.31;5116032;28;20134;-63
2022/07/15 07:26:29;;;;;;;2.55;1.27;;;;;;;36.55;19.87;96414.34;5115811;28;20083;-63
2022/07/15 07:28:56;;;;;;;1.77;0.80;;;;;;;36.38;19.59;96419.56;5115739;28;20500;-62
2022/07/15 07:31:26;;;;;;;2.45;0.77;;;;;;;36.15;20.59;96418.34;5115704;28;20061;-63
2022/07/15 07:33:53;;;;;;;1.93;0.90;;;;;;;36.25;20.19;96421.41;5115524;28;20058;-63
2022/07/15 07:36:22;;;;;;;9.18;1.40;;;;;;;36.36;20.25;96430.69;5115575;28;20300;-63
2022/07/15 07:38:49;;;;;;;5.15;0.80;;;;;;;36.45;19.96;96423.06;5115587;28;20386;-63
2022/07/15 07:41:17;;;;;;;5.25;0.80;;;;;;;36.38;19.72;96422.28;5115514;28;20100;-63
2022/07/15 07:43:44;;;;;;;1.25;0.80;;;;;;;36.36;20.48;96425.25;5115474;28;20082;-63
2022/07/15 07:46:12;;;;;;;1.08;0.88;;;;;;;35.69;19.71;96424.00;5115394;28;20055;-63
2022/07/15 07:48:40;;;;;;;6.55;1.55;;;;;;;35.11;22.04;96429.38;5115056;28;20051;-63
2022/07/15 07:51:08;;;;;;;4.72;0.98;;;;;;;34.96;20.50;96424.25;5114254;28;20417;-63
2022/07/15 07:53:37;;;;;;;1.30;0.90;;;;;;;34.99;21.32;96423.81;5115122;28;20050;-63
2022/07/15 07:56:04;;;;;;;6.18;1.20;;;;;;;35.07;21.15;96422.72;5115172;28;20126;-63
2022/07/15 07:58:31;;;;;;;4.75;1.13;;;;;;;35.24;21.64;96419.53;5115188;28;20473;-63
2022/07/15 08:00:58;;;;;;;1.90;0.88;;;;;;;35.24;21.64;96414.09;5114964;28;20047;-63
2022/07/15 08:03:27;;;;;;;8.80;1.17;;;;;;;35.02;21.05;96419.81;5114987;28;20082;-63
2022/07/15 08:05:54;;;;;;;4.80;1.45;;;;;;;34.90;22.83;96420.53;5115075;28;20043;-62
2022/07/15 08:08:22;;;;;;;9.52;1.10;;;;;;;35.03;21.56;96421.47;5115050;28;20109;-63
2022/07/15 08:10:52;;;;;;;3.85;1.02;;;;;;;35.04;21.06;96418.53;5114859;28;20392;-63
2022/07/15 08:13:21;;;;;;;1.20;1.10;;;;;;;34.88;21.89;96405.50;5114965;28;20052;-62
2022/07/15 08:15:49;;;;;;;7.18;1.20;;;;;;;34.89;22.42;96407.16;5114811;28;20051;-63
2022/07/15 08:18:16;;;;;;;1.20;1.15;;;;;;;35.19;22.00;96408.47;5114788;28;20096;-63
2022/07/15 08:20:44;;;;;;;4.15;1.40;;;;;;;35.29;22.06;96406.94;5114665;27;20112;-63
2022/07/15 08:23:11;;;;;;;4.18;1.40;;;;;;;35.42;21.14;96413.31;5114686;28;20136;-63
2022/07/15 08:25:39;;;;;;;9.35;1.10;;;;;;;35.74;21.30;96407.84;5114553;28;20092;-62
2022/07/15 08:28:08;;;;;;;6.28;1.30;;;;;;;35.86;22.39;96418.00;5114498;28;20468;-63
2022/07/15 08:30:36;;;;;;;1.75;0.90;;;;;;;35.92;21.42;96417.94;5114503;28;20123;-63
2022/07/15 08:33:04;;;;;;;7.53;1.27;;;;;;;36.11;20.46;96411.69;5114440;28;20093;-63
2022/07/15 08:35:32;;;;;;;4.10;1.13;;;;;;;35.73;21.04;96410.81;5114379;28;20071;-63
2022/07/15 08:37:59;;;;;;;5.95;1.45;;;;;;;35.32;21.37;96415.69;5114217;28;20069;-62
2022/07/15 08:40:27;;;;;;;7.93;1.73;;;;;;;35.57;21.50;96409.44;5114275;28;20083;-62
2022/07/15 08:42:55;;;;;;;4.15;1.45;;;;;;;35.62;21.33;96406.88;5114311;28;20050;-62
2022/07/15 08:45:23;;;;;;;2.53;1.20;;;;;;;35.26;20.82;96401.09;5114231;28;20044;-63
2022/07/15 08:47:52;;;;;;;1.75;1.20;;;;;;;34.88;20.63;96395.44;5114122;28;20048;-63
2022/07/15 08:50:20;;;;;;;2.70;1.30;;;;;;;34.80;21.69;96401.16;5114145;28;20558;-63
2022/07/15 08:52:48;;;;;;;2.67;1.08;;;;;;;34.78;21.99;96398.66;5114089;28;20047;-63
2022/07/15 08:55:16;;;;;;;2.90;1.48;;;;;;;34.54;22.10;96400.19;5114041;28;20120;-63
2022/07/15 08:57:47;;;;;;;4.05;1.08;;;;;;;34.19;21.90;96389.69;5113925;28;20408;-63
2022/07/15 09:00:16;;;;;;;3.95;1.27;;;;;;;33.91;22.40;96392.41;5113966;28;20047;-63
2022/07/15 09:02:44;;;;;;;2.35;1.00;;;;;;;33.67;23.13;96390.38;5113616;28;20054;-63
2022/07/15 09:05:27;;;;;;;5.15;1.50;;;;;;;33.78;24.30;96390.56;5113989;28;20052;-63
2022/07/15 09:07:59;;;;;;;2.63;1.05;;;;;;;33.98;23.09;96386.16;5113779;28;20054;-63
2022/07/15 09:10:43;;;;;;;5.00;1.13;;;;;;;33.95;23.06;96392.00;5113939;28;20051;-63
2022/07/15 09:13:11;;;;;;;3.53;1.25;;;;;;;33.78;22.64;96384.31;5113755;28;20044;-62
2022/07/15 09:15:40;;;;;;;5.57;1.15;;;;;;;33.56;23.47;96381.81;5113788;28;20082;-62
2022/07/15 09:18:11;;;;;;;3.58;1.30;;;;;;;33.18;23.45;96393.22;5113679;28;20044;-63
2022/07/15 09:20:40;;;;;;;2.63;1.23;;;;;;;33.20;23.51;96385.75;5113679;28;20089;-63
2022/07/15 09:23:07;;;;;;;6.05;1.27;;;;;;;33.43;25.13;96381.81;5113708;28;20051;-63
2022/07/15 09:25:35;;;;;;;2.67;1.42;;;;;;;33.30;22.87;96378.03;5113652;28;20124;-62
2022/07/15 09:28:04;;;;;;;2.78;1.15;;;;;;;33.20;23.54;96383.84;5113607;28;20096;-63
2022/07/15 09:33:36;;;;;;;4.57;1.50;;;;;;;32.75;24.01;96382.50;5113678;28;20447;-63
2022/07/15 09:36:14;;;;;;;1.30;1.20;;;;;;;33.13;24.12;96383.00;5113624;28;20051;-62
2022/07/15 09:38:43;;;;;;;6.75;1.40;;;;;;;33.16;22.48;96385.31;5113509;28;20079;-63
2022/07/15 09:41:13;;;;;;;1.52;0.95;;;;;;;33.31;23.78;96381.59;5113436;28;20083;-62
2022/07/15 09:43:49;;;;;;;2.15;1.20;;;;;;;33.18;24.96;96377.81;5113407;28;20066;-62
2022/07/15 09:46:16;;;;;;;1.83;1.05;;;;;;;33.32;24.18;96380.53;5113371;28;20093;-62
2022/07/15 09:48:47;;;;;;;4.45;1.20;;;;;;;32.95;22.07;96378.19;5113213;28;20105;-62
2022/07/15 09:51:15;;;;;;;1.35;0.95;;;;;;;33.23;23.27;96372.59;5113501;28;20471;-62
2022/07/15 09:53:43;;;;;;;2.45;1.38;;;;;;;33.63;22.30;96366.41;5113380;28;20138;-62
2022/07/15 09:56:11;;;;;;;10.32;1.42;;;;;;;34.02;22.77;96360.25;5113271;28;20086;-62
2022/07/15 09:58:41;;;;;;;6.00;1.20;;;;;;;34.32;21.58;96357.06;5113166;28;20140;-62
2022/07/15 10:01:09;;;;;;;3.13;1.27;;;;;;;33.93;21.68;96354.25;5113327;28;20047;-62
2022/07/15 10:03:39;;;;;;;1.48;1.20;;;;;;;33.85;23.25;96349.88;5113206;28;20052;-63
2022/07/15 10:06:13;;;;;;;5.32;1.20;;;;;;;33.96;22.63;96352.97;5113173;28;20058;-63
2022/07/15 10:08:41;;;;;;;1.95;1.15;;;;;;;34.20;22.78;96346.06;5113273;28;20052;-62
2022/07/15 10:11:11;;;;;;;7.15;1.20;;;;;;;34.28;20.84;96345.00;5113233;28;20048;-62
2022/07/15 10:14:18;;;;;;;3.10;1.10;;;;;;;34.01;20.31;96343.16;5115038;28;20106;-63
2022/07/15 10:17:14;;;;;;;4.97;1.13;;;;;;;33.81;21.34;96343.22;5054187;28;20435;-63
2022/07/15 10:20:08;;;;;;;9.75;1.20;;;;;;;33.50;21.43;96337.38;5054193;28;20545;-63
2022/07/15 10:22:51;;;;;;;3.28;1.13;;;;;;;33.30;22.12;96337.41;5106073;28;20151;-63
2022/07/15 10:25:26;;;;;;;4.85;1.20;;;;;;;33.39;23.31;96346.16;5116951;28;20099;-62
2022/07/15 10:28:04;;;;;;;1.15;1.00;;;;;;;33.44;22.65;96332.81;5116947;28;20048;-62
2022/07/15 10:30:31;;;;;;;4.97;1.05;;;;;;;32.92;22.19;96335.28;5116803;28;20464;-62
2022/07/15 10:33:13;;;;;;;5.40;1.38;;;;;;;32.50;23.53;96331.63;5116668;28;20046;-63
2022/07/15 10:35:42;;;;;;;4.22;1.10;;;;;;;32.21;22.67;96327.34;5116780;28;20125;-62
2022/07/15 10:38:41;;;;;;;3.50;0.90;;;;;;;32.07;23.20;96324.56;5116753;27;20048;-62
2022/07/15 10:41:10;;;;;;;3.05;1.00;;;;;;;32.01;22.47;96319.97;5053917;28;20513;-63
2022/07/15 10:43:43;;;;;;;3.75;1.15;;;;;;;32.28;22.30;96315.50;5103480;28;20478;-63
2022/07/15 10:46:21;;;;;;;4.53;1.00;;;;;;;32.64;23.89;96320.84;5116579;28;20501;-62
2022/07/15 10:48:51;;;;;;;2.72;1.17;;;;;;;33.13;22.90;96313.44;5116177;28;20520;-62
2022/07/15 10:51:44;;;;;;;1.67;0.80;;;;;;;33.25;22.77;96304.66;5116424;28;20048;-62
2022/07/15 10:54:43;;;;;;;2.95;1.02;;;;;;;33.38;22.90;96311.97;5116550;28;20047;-62
2022/07/15 10:57:10;;;;;;;8.60;1.05;;;;;;;33.27;21.97;96313.44;5116371;28;20481;-63
2022/07/15 10:59:41;;;;;;;1.90;1.10;;;;;;;33.35;22.59;96315.09;5116357;28;20132;-62
2022/07/15 11:02:17;;;;;;;2.70;1.05;;;;;;;33.39;22.26;96310.94;5116188;28;20536;-62
2022/07/15 11:04:46;;;;;;;4.20;1.05;;;;;;;33.68;22.26;96308.84;5116133;28;20039;-63
2022/07/15 11:07:26;;;;;;;4.80;1.15;;;;;;;33.76;23.33;96305.88;5116250;28;20139;-62
2022/07/15 11:09:57;;;;;;;4.47;1.00;;;;;;;33.52;24.59;96307.34;5116145;28;20054;-62
2022/07/15 11:12:25;;;;;;;3.47;1.00;;;;;;;33.36;22.06;96297.78;5116109;28;20109;-63
2022/07/15 11:14:56;;;;;;;3.88;1.33;;;;;;;33.20;21.19;96302.59;5115986;28;20044;-62
2022/07/15 11:17:38;;;;;;;4.38;1.02;;;;;;;33.07;22.51;96292.59;5115786;28;20169;-62
2022/07/15 11:20:09;;;;;;;1.73;1.00;;;;;;;32.99;22.89;96285.47;5115813;28;20050;-62
2022/07/15 11:22:39;;;;;;;1.75;0.90;;;;;;;33.02;22.13;96284.25;5115948;28;20047;-62
2022/07/15 11:25:17;;;;;;;6.47;1.08;;;;;;;32.88;21.69;96280.69;5115602;28;20443;-62
2022/07/15 11:27:55;;;;;;;3.78;1.40;;;;;;;33.08;22.56;96286.13;5115797;28;20055;-62
2022/07/15 11:30:23;;;;;;;3.22;1.20;;;;;;;33.41;22.43;96279.03;5115743;28;20044;-62
2022/07/15 11:32:56;;;;;;;5.78;1.23;;;;;;;33.43;20.74;96276.13;5115624;28;20464;-62
2022/07/15 11:35:24;;;;;;;3.92;1.10;;;;;;;33.52;21.53;96277.53;5115641;28;20052;-63
2022/07/15 11:37:59;;;;;;;3.53;1.08;;;;;;;33.77;21.92;96280.44;5115401;28;20047;-63
2022/07/15 11:46:04;;;;;;;4.35;1.27;;;;;;;33.89;22.18;96277.09;5115535;28;20513;-63
2022/07/15 11:48:37;;;;;;;2.60;1.10;;;;;;;34.15;22.13;96278.88;5115135;28;20043;-62
2022/07/15 11:51:04;;;;;;;3.47;0.85;;;;;;;34.12;21.10;96278.44;5115198;28;20462;-62
2022/07/15 11:53:37;;;;;;;6.03;1.10;;;;;;;33.62;22.17;96267.13;5115301;28;20048;-62
2022/07/15 11:56:07;;;;;;;1.48;0.90;;;;;;;33.43;22.08;96274.22;5115089;28;20092;-62
2022/07/15 11:58:37;;;;;;;2.33;1.33;;;;;;;33.26;22.43;96280.09;5114994;28;20151;-62